createdAt,value
2022-08-26T00:00:06.637Z,143.77
2022-08-26T00:04:10.253Z,149.63
2022-08-26T00:08:15.401Z,136.17
2022-08-26T00:12:18.733Z,153.30
2022-08-26T00:16:41.000Z,165.57
2022-08-26T00:20:51.915Z,164.23
2022-08-26T00:24:55.125Z,162.23
2022-08-26T00:28:58.366Z,152.23
2022-08-26T00:33:04.534Z,154.67
2022-08-26T00:37:11.642Z,152.07
2022-08-26T00:41:21.134Z,175.63
2022-08-26T00:45:25.010Z,165.00
2022-08-26T00:49:35.138Z,156.70
2022-08-26T00:53:43.140Z,144.70
2022-08-26T00:57:47.338Z,150.10
2022-08-26T01:01:50.706Z,145.67
2022-08-26T01:05:58.229Z,145.73
2022-08-26T01:10:03.210Z,144.13
2022-08-26T01:14:09.228Z,164.27
2022-08-26T01:18:13.988Z,142.70
2022-08-26T01:22:22.083Z,174.47
2022-08-26T01:26:36.057Z,154.10
2022-08-26T01:30:41.258Z,156.03
2022-08-26T01:34:44.550Z,152.57
2022-08-26T01:38:48.075Z,161.33
2022-08-26T01:42:53.796Z,152.10
2022-08-26T01:46:59.586Z,157.50
2022-08-26T01:51:04.556Z,153.57
2022-08-26T01:55:11.370Z,152.83
2022-08-26T01:59:17.413Z,161.13
2022-08-26T02:03:22.664Z,174.10
2022-08-26T02:07:26.927Z,180.03
2022-08-26T02:11:30.577Z,176.37
2022-08-26T02:15:35.362Z,153.67
2022-08-26T02:19:42.910Z,144.80
2022-08-26T02:23:46.488Z,167.93
2022-08-26T02:27:49.758Z,163.13
2022-08-26T02:31:55.817Z,166.17
2022-08-26T02:35:59.377Z,150.77
2022-08-26T02:40:02.807Z,161.20
2022-08-26T02:44:07.313Z,171.43
2022-08-26T02:48:15.947Z,181.87
2022-08-26T02:52:19.333Z,156.33
2022-08-26T02:56:22.607Z,174.47
2022-08-26T03:00:26.120Z,159.67
2022-08-26T03:04:33.453Z,184.77
2022-08-26T03:08:36.790Z,159.03
2022-08-26T03:12:41.117Z,189.60
2022-08-26T03:16:44.431Z,158.83
2022-08-26T03:20:53.228Z,157.83
2022-08-26T03:24:56.489Z,166.53
2022-08-26T03:29:17.255Z,161.07
2022-08-26T03:33:22.468Z,165.50
2022-08-26T03:37:27.116Z,162.60
2022-08-26T03:41:32.846Z,171.90
2022-08-26T03:45:36.818Z,178.50
2022-08-26T03:49:40.830Z,179.33
2022-08-26T03:53:46.000Z,185.17
2022-08-26T03:57:49.342Z,190.77
2022-08-26T04:01:53.712Z,181.70
2022-08-26T04:05:57.044Z,184.57
2022-08-26T04:10:02.276Z,183.77
2022-08-26T04:14:07.982Z,185.63
2022-08-26T04:18:11.492Z,193.53
2022-08-26T04:22:15.563Z,171.00
2022-08-26T04:26:28.843Z,190.33
2022-08-26T04:30:32.892Z,172.73
2022-08-26T04:34:37.873Z,188.67
2022-08-26T04:38:42.775Z,201.63
2022-08-26T04:42:47.423Z,191.33
2022-08-26T04:46:51.002Z,161.80
2022-08-26T04:50:54.494Z,192.60
2022-08-26T04:54:57.979Z,190.03
2022-08-26T04:59:03.877Z,175.03
2022-08-26T05:03:10.990Z,189.83
2022-08-26T05:07:14.675Z,167.43
2022-08-26T05:11:22.034Z,175.00
2022-08-26T05:15:26.906Z,170.13
2022-08-26T05:19:46.777Z,180.17
2022-08-26T05:23:51.737Z,191.80
2022-08-26T05:27:55.121Z,165.63
2022-08-26T05:32:00.887Z,170.57
2022-08-26T05:36:09.366Z,167.27
2022-08-26T05:40:13.548Z,161.27
2022-08-26T05:44:18.950Z,153.63
2022-08-26T05:48:24.442Z,164.07
2022-08-26T05:52:27.938Z,161.03
2022-08-26T05:56:31.398Z,132.17
2022-08-26T06:00:34.810Z,128.27
2022-08-26T06:04:40.944Z,135.13
2022-08-26T06:08:44.695Z,131.57
2022-08-26T06:12:47.905Z,130.17
2022-08-26T06:16:51.173Z,116.97
2022-08-26T06:20:57.896Z,126.43
2022-08-26T06:25:19.441Z,109.70
2022-08-26T06:29:26.138Z,119.07
2022-08-26T06:33:29.773Z,94.17
2022-08-26T06:37:34.491Z,86.70
2022-08-26T06:41:43.251Z,102.27
2022-08-26T06:45:47.751Z,101.17
2022-08-26T06:49:51.397Z,92.57
2022-08-26T06:53:59.617Z,75.70
2022-08-26T06:58:03.732Z,64.70
2022-08-26T07:02:08.149Z,55.27
2022-08-26T07:06:11.502Z,51.83
2022-08-26T07:10:16.575Z,47.70
2022-08-26T07:14:21.466Z,29.80
2022-08-26T07:18:25.276Z,21.30
2022-08-26T07:22:29.436Z,18.60
2022-08-26T07:26:35.290Z,14.67
2022-08-26T07:30:41.903Z,17.27
2022-08-26T07:34:45.723Z,43.20
2022-08-26T07:38:49.420Z,15.40
2022-08-26T07:42:55.005Z,14.17
2022-08-26T07:46:58.931Z,13.60
2022-08-26T07:51:02.708Z,12.90
2022-08-26T07:55:09.801Z,12.57
2022-08-26T07:59:15.257Z,11.40
2022-08-26T08:03:19.048Z,11.43
2022-08-26T08:07:35.025Z,12.20
2022-08-26T08:11:42.756Z,11.27
2022-08-26T08:15:48.585Z,10.57
2022-08-26T08:19:53.776Z,10.53
2022-08-26T08:23:58.537Z,9.57
2022-08-26T08:28:02.178Z,8.87
2022-08-26T08:32:11.522Z,9.80
2022-08-26T08:36:18.492Z,9.27
2022-08-26T08:40:26.390Z,8.73
2022-08-26T08:44:30.001Z,8.43
2022-08-26T08:48:39.513Z,7.30
2022-08-26T08:52:47.145Z,6.60
2022-08-26T08:56:54.196Z,7.47
2022-08-26T09:01:07.077Z,8.00
2022-08-26T09:05:21.646Z,6.90
2022-08-26T09:09:31.907Z,7.83
2022-08-26T09:13:35.942Z,7.20
2022-08-26T09:17:49.438Z,8.40
2022-08-26T09:21:59.166Z,8.70
2022-08-26T09:26:04.617Z,7.43
2022-08-26T09:30:11.497Z,7.60
2022-08-26T09:34:18.240Z,7.37
2022-08-26T09:38:27.975Z,8.70
2022-08-26T09:42:31.428Z,7.97
2022-08-26T09:46:36.695Z,7.40
2022-08-26T09:50:50.598Z,8.67
2022-08-26T09:55:07.125Z,8.60
2022-08-26T09:59:12.114Z,7.00
2022-08-26T10:03:26.436Z,8.87
2022-08-26T10:07:40.553Z,7.63
2022-08-26T10:11:49.266Z,8.30
2022-08-26T10:16:00.661Z,7.37
2022-08-26T10:20:22.696Z,6.60
2022-08-26T10:24:32.702Z,7.33
2022-08-26T10:28:42.593Z,7.97
2022-08-26T10:32:52.696Z,5.80
2022-08-26T10:37:15.590Z,7.70
2022-08-26T10:41:28.001Z,7.93
2022-08-26T10:45:39.300Z,6.00
2022-08-26T10:49:45.521Z,6.20
2022-08-26T10:53:55.951Z,6.60
2022-08-26T10:58:09.093Z,6.47
2022-08-26T11:02:25.317Z,7.23
2022-08-26T11:06:31.417Z,6.87
2022-08-26T11:11:04.795Z,6.07
2022-08-26T11:15:09.980Z,6.10
2022-08-26T11:20:01.228Z,5.83
2022-08-26T11:24:05.544Z,7.37
2022-08-26T11:28:09.017Z,7.30
2022-08-26T11:32:26.067Z,7.00
2022-08-26T11:36:59.977Z,6.83
2022-08-26T11:41:12.686Z,5.87
2022-08-26T11:45:23.912Z,5.90
2022-08-26T11:49:28.394Z,5.30
2022-08-26T11:53:37.217Z,5.80
2022-08-26T11:58:23.377Z,6.37
2022-08-26T12:02:30.073Z,5.80
2022-08-26T12:06:41.975Z,6.40
2022-08-26T12:10:50.079Z,6.47
2022-08-26T12:15:12.229Z,7.20
2022-08-26T12:19:41.734Z,6.20
2022-08-26T12:24:23.659Z,6.53
2022-08-26T12:28:32.803Z,5.90
2022-08-26T12:32:39.223Z,5.47
2022-08-26T12:37:01.190Z,7.10
2022-08-26T12:41:04.499Z,6.10
2022-08-26T12:45:10.499Z,7.10
2022-08-26T12:49:18.591Z,6.43
2022-08-26T12:53:25.014Z,5.80
2022-08-26T12:57:31.705Z,5.67
2022-08-26T13:01:43.785Z,5.20
2022-08-26T13:05:47.367Z,5.40
2022-08-26T13:09:52.039Z,5.50
2022-08-26T13:13:58.722Z,5.87
2022-08-26T13:18:04.259Z,5.70
2022-08-26T13:22:07.758Z,5.67
2022-08-26T13:26:11.096Z,5.60
2022-08-26T13:30:15.148Z,5.00
2022-08-26T13:34:21.387Z,5.50
2022-08-26T13:38:33.393Z,5.87
2022-08-26T13:42:37.423Z,5.67
2022-08-26T13:46:53.007Z,6.63
2022-08-26T13:50:57.802Z,5.80
2022-08-26T13:55:01.519Z,6.03
2022-08-26T13:59:06.554Z,5.37
2022-08-26T14:03:13.391Z,5.30
2022-08-26T14:07:18.634Z,6.33
2022-08-26T14:11:22.546Z,6.10
2022-08-26T14:15:26.699Z,4.73
2022-08-26T14:19:33.099Z,5.80
2022-08-26T14:23:37.848Z,5.50
2022-08-26T14:27:41.940Z,5.73
2022-08-26T14:31:45.643Z,5.10
2022-08-26T14:35:49.099Z,5.87
2022-08-26T14:39:54.899Z,5.23
2022-08-26T14:44:03.000Z,5.10
2022-08-26T14:48:06.504Z,6.23
2022-08-26T14:52:11.527Z,5.97
2022-08-26T14:56:17.723Z,4.90
2022-08-26T15:00:21.577Z,5.40
2022-08-26T15:04:27.465Z,4.70
2022-08-26T15:08:33.477Z,5.60
2022-08-26T15:12:41.698Z,7.27
2022-08-26T15:16:46.084Z,6.43
2022-08-26T15:20:50.256Z,4.90
2022-08-26T15:24:54.775Z,6.57
2022-08-26T15:29:04.858Z,7.00
2022-08-26T15:33:15.336Z,6.23
2022-08-26T15:37:20.559Z,6.83
2022-08-26T15:41:26.230Z,6.87
2022-08-26T15:45:34.418Z,6.93
2022-08-26T15:49:38.054Z,7.10
2022-08-26T15:53:42.425Z,7.67
2022-08-26T15:57:46.346Z,8.40
2022-08-26T16:01:54.498Z,7.17
2022-08-26T16:05:59.291Z,7.20
2022-08-26T16:10:02.815Z,8.37
2022-08-26T16:14:08.499Z,8.57
2022-08-26T16:18:14.052Z,9.60
2022-08-26T16:22:18.120Z,10.47
2022-08-26T16:26:25.379Z,9.77
2022-08-26T16:30:30.425Z,12.90
2022-08-26T16:34:35.240Z,12.00
2022-08-26T16:38:39.639Z,13.67
2022-08-26T16:42:43.176Z,15.30
2022-08-26T16:46:47.696Z,16.00
2022-08-26T16:50:55.623Z,7.73
2022-08-26T16:54:59.691Z,8.00
2022-08-26T16:59:03.632Z,6.40
2022-08-26T17:03:07.071Z,5.90
2022-08-26T17:07:12.445Z,5.93
2022-08-26T17:11:16.393Z,7.90
2022-08-26T17:15:20.483Z,7.10
2022-08-26T17:19:24.012Z,8.40
2022-08-26T17:23:28.913Z,6.20
2022-08-26T17:27:32.500Z,7.00
2022-08-26T17:31:36.303Z,8.23
2022-08-26T17:35:39.694Z,6.97
2022-08-26T17:39:45.148Z,7.73
2022-08-26T17:43:48.685Z,7.90
2022-08-26T17:47:52.416Z,7.37
2022-08-26T17:51:58.537Z,7.43
2022-08-26T17:56:06.102Z,7.37
2022-08-26T18:00:14.552Z,7.40
2022-08-26T18:04:18.103Z,8.40
2022-08-26T18:08:22.071Z,8.13
2022-08-26T18:12:26.840Z,8.10
2022-08-26T18:16:38.230Z,7.50
2022-08-26T18:20:43.310Z,7.67
2022-08-26T18:24:55.411Z,9.03
2022-08-26T18:29:03.944Z,7.50
2022-08-26T18:33:07.256Z,8.50
2022-08-26T18:41:14.327Z,9.60
2022-08-26T18:45:19.221Z,8.60
2022-08-26T18:49:22.821Z,8.80
2022-08-26T18:53:26.670Z,8.37
2022-08-26T18:57:30.014Z,8.47
2022-08-26T19:01:36.077Z,8.83
2022-08-26T19:05:40.736Z,9.00
2022-08-26T19:09:44.351Z,8.47
2022-08-26T19:13:48.554Z,10.03
2022-08-26T19:17:56.780Z,9.50
2022-08-26T19:22:00.612Z,9.17
2022-08-26T19:26:06.007Z,8.93
2022-08-26T19:30:11.512Z,9.20
2022-08-26T19:34:18.239Z,9.10
2022-08-26T19:38:24.512Z,10.57
2022-08-26T19:42:31.702Z,9.53
2022-08-26T19:46:36.258Z,10.50
2022-08-26T19:50:42.430Z,10.70
2022-08-26T19:54:45.995Z,10.40
2022-08-26T19:58:50.072Z,10.40
2022-08-26T20:02:54.148Z,10.50
2022-08-26T20:07:00.615Z,10.80
2022-08-26T20:11:06.165Z,10.50
2022-08-26T20:15:11.940Z,10.87
2022-08-26T20:19:37.249Z,11.60
2022-08-26T20:23:44.007Z,11.37
2022-08-26T20:27:47.613Z,12.20
2022-08-26T20:31:52.879Z,12.03
2022-08-26T20:35:56.559Z,13.50
2022-08-26T20:40:01.556Z,14.40
2022-08-26T20:44:10.811Z,15.20
2022-08-26T20:48:21.211Z,13.13
2022-08-26T20:52:29.216Z,13.50
2022-08-26T20:56:34.200Z,13.20
2022-08-26T21:00:39.798Z,14.80
2022-08-26T21:04:43.158Z,14.13
2022-08-26T21:08:48.576Z,14.00
2022-08-26T21:12:53.364Z,12.87
2022-08-26T21:16:56.759Z,11.10
2022-08-26T21:21:00.175Z,11.20
2022-08-26T21:25:03.775Z,11.97
2022-08-26T21:29:09.997Z,11.70
2022-08-26T21:33:13.363Z,11.77
2022-08-26T21:37:17.120Z,12.90
2022-08-26T21:41:22.484Z,14.13
2022-08-26T21:45:27.196Z,14.23
2022-08-26T21:49:30.519Z,12.50
2022-08-26T21:53:33.921Z,12.97
2022-08-26T21:57:37.241Z,14.53
2022-08-26T22:01:42.879Z,12.30
2022-08-26T22:05:47.496Z,11.80
2022-08-26T22:09:50.756Z,12.40
2022-08-26T22:13:55.313Z,13.23
2022-08-26T22:18:00.015Z,11.83
2022-08-26T22:22:03.826Z,13.60
2022-08-26T22:26:09.063Z,12.00
2022-08-26T22:30:12.903Z,12.50
2022-08-26T22:34:19.683Z,12.80
2022-08-26T22:38:24.188Z,12.20
2022-08-26T22:42:27.552Z,11.90
2022-08-26T22:46:31.818Z,11.60
2022-08-26T22:50:36.584Z,12.27
2022-08-26T22:54:39.893Z,12.70
2022-08-26T22:58:43.348Z,11.00
2022-08-26T23:02:46.661Z,12.60
2022-08-26T23:06:51.470Z,13.37
2022-08-26T23:10:55.107Z,12.73
2022-08-26T23:14:58.478Z,10.60
2022-08-26T23:19:01.736Z,12.07
2022-08-26T23:23:06.600Z,11.50
2022-08-26T23:27:10.343Z,12.87
2022-08-26T23:31:14.459Z,13.23
2022-08-26T23:35:21.735Z,12.13
2022-08-26T23:39:27.100Z,13.53
2022-08-26T23:43:30.606Z,12.07
2022-08-26T23:47:34.109Z,11.77
2022-08-26T23:52:01.218Z,13.20
2022-08-26T23:56:06.217Z,13.00
